createdAt,value
2018-02-13T00:00:41.599Z,99029.12
2018-02-13T00:03:09.012Z,99022.55
2018-02-13T00:05:36.408Z,99030.36
2018-02-13T00:08:03.824Z,99034.25
2018-02-13T00:10:31.224Z,99034.95
2018-02-13T00:12:58.631Z,99030.66
2018-02-13T00:15:26.037Z,99029.72
2018-02-13T00:17:53.478Z,99030.35
2018-02-13T00:20:20.882Z,99022.80
2018-02-13T00:22:50.409Z,99026.05
2018-02-13T00:25:17.820Z,99026.85
2018-02-13T00:27:45.517Z,99022.72
2018-02-13T00:30:12.917Z,99024.81
2018-02-13T00:32:40.328Z,99021.56
2018-02-13T00:35:07.730Z,99027.16
2018-02-13T00:37:35.133Z,99028.88
2018-02-13T00:40:02.558Z,99025.43
2018-02-13T00:42:29.952Z,99025.23
2018-02-13T00:44:57.364Z,99025.71
2018-02-13T00:47:24.779Z,99022.04
2018-02-13T00:49:52.181Z,99019.11
2018-02-13T00:52:19.590Z,99026.30
2018-02-13T00:54:47.000Z,99024.63
2018-02-13T00:57:14.405Z,99023.27
2018-02-13T00:59:41.817Z,99023.91
2018-02-13T01:02:09.230Z,99028.81
2018-02-13T01:04:36.635Z,99029.36
2018-02-13T01:07:04.040Z,99031.91
2018-02-13T01:09:31.464Z,99027.48
2018-02-13T01:11:58.864Z,99027.50
2018-02-13T01:14:26.683Z,99025.73
2018-02-13T01:16:54.093Z,99036.02
2018-02-13T01:19:21.504Z,99025.65
2018-02-13T01:21:48.917Z,99023.11
2018-02-13T01:24:16.313Z,99027.25
2018-02-13T01:26:43.729Z,99024.83
2018-02-13T01:29:11.140Z,99020.20
2018-02-13T01:31:38.548Z,99026.73
2018-02-13T01:34:05.962Z,99030.95
2018-02-13T01:36:33.373Z,99021.14
2018-02-13T01:39:00.781Z,99024.56
2018-02-13T01:41:28.179Z,99016.79
2018-02-13T01:43:55.585Z,99021.12
2018-02-13T01:46:23.001Z,99018.28
2018-02-13T01:48:50.404Z,99020.59
2018-02-13T01:51:17.812Z,99022.32
2018-02-13T01:53:45.224Z,99016.56
2018-02-13T01:56:12.627Z,99017.80
2018-02-13T01:58:40.037Z,99013.81
2018-02-13T02:01:07.456Z,99009.26
2018-02-13T02:03:34.853Z,99017.47
2018-02-13T02:06:02.264Z,99012.14
2018-02-13T02:08:29.667Z,99016.38
2018-02-13T02:10:57.081Z,99012.66
2018-02-13T02:13:24.487Z,99015.57
2018-02-13T02:15:52.943Z,99019.63
2018-02-13T02:18:20.342Z,99017.09
2018-02-13T02:20:47.748Z,99012.95
2018-02-13T02:23:15.158Z,99010.64
2018-02-13T02:25:42.563Z,99003.39
2018-02-13T02:28:09.980Z,98996.64
2018-02-13T02:30:37.369Z,99008.00
2018-02-13T02:33:04.802Z,99003.70
2018-02-13T02:35:32.201Z,99005.95
2018-02-13T02:37:59.610Z,99003.47
2018-02-13T02:40:27.009Z,99004.38
2018-02-13T02:43:06.161Z,99005.02
2018-02-13T02:45:33.566Z,98993.80
2018-02-13T02:48:01.012Z,98996.38
2018-02-13T02:50:28.378Z,98991.61
2018-02-13T02:52:55.788Z,98992.38
2018-02-13T02:55:23.921Z,98983.30
2018-02-13T02:57:51.324Z,98990.17
2018-02-13T03:00:18.734Z,98989.64
2018-02-13T03:02:46.144Z,98979.71
2018-02-13T03:05:13.549Z,98978.33
2018-02-13T03:07:40.960Z,98985.91
2018-02-13T03:10:08.356Z,98980.31
2018-02-13T03:12:35.778Z,98980.52
2018-02-13T03:15:03.177Z,98981.58
2018-02-13T03:17:30.591Z,98980.44
2018-02-13T03:19:57.984Z,98976.11
2018-02-13T03:22:25.385Z,98975.29
2018-02-13T03:24:52.798Z,98976.20
2018-02-13T03:27:20.238Z,98968.28
2018-02-13T03:29:47.602Z,98973.20
2018-02-13T03:32:15.005Z,98968.95
2018-02-13T03:34:42.428Z,98964.86
2018-02-13T03:37:09.828Z,98962.30
2018-02-13T03:39:37.241Z,98969.64
2018-02-13T03:42:04.661Z,98960.38
2018-02-13T03:44:32.070Z,98954.48
2018-02-13T03:46:59.473Z,98958.08
2018-02-13T03:49:26.882Z,98960.34
2018-02-13T03:51:54.292Z,98960.28
2018-02-13T03:54:21.712Z,98960.88
2018-02-13T03:56:49.117Z,98955.50
2018-02-13T03:59:16.529Z,98947.72
2018-02-13T04:01:43.925Z,98948.16
2018-02-13T04:04:11.350Z,98954.23
2018-02-13T04:06:38.748Z,98945.47
2018-02-13T04:09:06.155Z,98941.16
2018-02-13T04:11:33.561Z,98934.82
2018-02-13T04:14:00.976Z,98940.04
2018-02-13T04:16:28.380Z,98931.06
2018-02-13T04:18:56.466Z,98933.05
2018-02-13T04:21:23.878Z,98934.28
2018-02-13T04:23:51.317Z,98932.77
2018-02-13T04:26:18.712Z,98941.08
2018-02-13T04:28:46.120Z,98933.27
2018-02-13T04:31:13.539Z,98932.13
2018-02-13T04:33:40.936Z,98931.55
2018-02-13T04:36:09.046Z,98934.51
2018-02-13T04:38:36.449Z,98929.20
2018-02-13T04:41:03.856Z,98931.59
2018-02-13T04:43:31.273Z,98928.65
2018-02-13T04:45:58.689Z,98926.82
2018-02-13T04:48:26.097Z,98925.50
2018-02-13T04:50:53.513Z,98928.25
2018-02-13T04:53:20.922Z,98930.23
2018-02-13T04:55:48.336Z,98930.69
2018-02-13T04:58:15.748Z,98920.37
2018-02-13T05:00:43.169Z,98924.17
2018-02-13T05:03:10.572Z,98918.60
2018-02-13T05:05:38.012Z,98908.95
2018-02-13T05:08:05.379Z,98915.81
2018-02-13T05:10:32.808Z,98911.45
2018-02-13T05:13:00.197Z,98911.23
2018-02-13T05:15:27.880Z,98916.33
2018-02-13T05:17:55.289Z,98915.85
2018-02-13T05:20:22.701Z,98914.86
2018-02-13T05:22:50.110Z,98918.42
2018-02-13T05:25:17.524Z,98911.70
2018-02-13T05:27:44.956Z,98909.67
2018-02-13T05:30:12.376Z,98909.60
2018-02-13T05:32:39.779Z,98906.39
2018-02-13T05:35:07.889Z,98907.61
2018-02-13T05:37:35.375Z,98908.95
2018-02-13T05:40:02.809Z,98910.78
2018-02-13T05:42:30.200Z,98907.42
2018-02-13T05:44:58.605Z,98912.95
2018-02-13T05:47:26.017Z,98913.37
2018-02-13T05:49:54.189Z,98908.47
2018-02-13T05:52:21.604Z,98907.69
2018-02-13T05:54:49.000Z,98913.57
2018-02-13T05:57:16.416Z,98907.61
2018-02-13T05:59:43.816Z,98902.92
2018-02-13T06:02:11.228Z,98909.66
2018-02-13T06:04:38.639Z,98903.56
2018-02-13T06:07:06.053Z,98901.25
2018-02-13T06:09:33.456Z,98903.31
2018-02-13T06:12:00.874Z,98894.48
2018-02-13T06:14:28.275Z,98894.91
2018-02-13T06:16:55.696Z,98896.45
2018-02-13T06:19:23.098Z,98894.02
2018-02-13T06:21:50.508Z,98887.44
2018-02-13T06:24:17.909Z,98886.03
2018-02-13T06:26:45.328Z,98887.34
2018-02-13T06:29:13.192Z,98898.00
2018-02-13T06:31:40.605Z,98890.82
2018-02-13T06:34:08.014Z,98888.98
2018-02-13T06:36:35.420Z,98892.41
2018-02-13T06:39:02.817Z,98896.17
2018-02-13T06:41:30.244Z,98895.75
2018-02-13T06:43:57.649Z,98898.79
2018-02-13T06:46:25.048Z,98899.56
2018-02-13T06:48:52.457Z,98894.57
2018-02-13T06:51:19.860Z,98898.94
2018-02-13T06:53:47.272Z,98899.11
2018-02-13T06:56:14.672Z,98898.38
2018-02-13T06:58:42.084Z,98900.70
2018-02-13T07:01:09.493Z,98896.41
2018-02-13T07:03:36.908Z,98894.45
2018-02-13T07:06:04.304Z,98894.08
2018-02-13T07:08:31.721Z,98898.98
2018-02-13T07:10:59.121Z,98896.18
2018-02-13T07:13:26.546Z,98902.39
2018-02-13T07:15:53.952Z,98900.43
2018-02-13T07:18:21.347Z,98896.70
2018-02-13T07:20:49.522Z,98896.30
2018-02-13T07:23:16.933Z,98895.14
2018-02-13T07:25:44.340Z,98891.31
2018-02-13T07:28:11.763Z,98883.54
2018-02-13T07:30:39.157Z,98887.12
2018-02-13T07:33:06.572Z,98882.39
2018-02-13T07:35:33.980Z,98877.62
2018-02-13T07:38:01.969Z,98883.08
2018-02-13T07:40:29.376Z,98876.58
2018-02-13T07:42:57.409Z,98881.02
2018-02-13T07:45:24.799Z,98878.92
2018-02-13T07:47:52.197Z,98880.45
2018-02-13T07:50:19.609Z,98873.25
2018-02-13T07:52:47.008Z,98871.31
2018-02-13T07:55:14.412Z,98868.69
2018-02-13T07:57:41.809Z,98874.31
2018-02-13T08:00:09.225Z,98877.06
2018-02-13T08:02:36.625Z,98872.52
2018-02-13T08:05:04.029Z,98862.52
2018-02-13T08:07:31.438Z,98864.06
2018-02-13T08:09:58.857Z,98863.06
2018-02-13T08:12:26.836Z,98861.25
2018-02-13T08:14:54.244Z,98858.77
2018-02-13T08:17:21.639Z,98855.38
2018-02-13T08:19:49.048Z,98853.51
2018-02-13T08:22:16.445Z,98846.67
2018-02-13T08:24:43.847Z,98849.69
2018-02-13T08:27:11.254Z,98854.45
2018-02-13T08:29:38.679Z,98856.16
2018-02-13T08:32:06.080Z,98851.34
2018-02-13T08:34:33.700Z,98843.64
2018-02-13T08:37:01.101Z,98846.59
2018-02-13T08:39:28.514Z,98833.27
2018-02-13T08:41:55.912Z,98843.64
2018-02-13T08:44:23.316Z,98840.04
2018-02-13T08:46:50.724Z,98832.31
2018-02-13T08:49:18.131Z,98827.35
2018-02-13T08:51:45.536Z,98832.89
2018-02-13T08:54:12.950Z,98822.00
2018-02-13T08:56:40.349Z,98829.16
2018-02-13T08:59:07.748Z,98814.48
2018-02-13T09:01:35.161Z,98819.21
2018-02-13T09:04:02.565Z,98810.13
2018-02-13T09:06:29.980Z,98808.69
2018-02-13T09:08:57.372Z,98810.99
2018-02-13T09:11:24.782Z,98813.60
2018-02-13T09:13:52.180Z,98804.52
2018-02-13T09:16:19.588Z,98801.01
2018-02-13T09:18:46.976Z,98800.41
2018-02-13T09:21:14.384Z,98798.09
2018-02-13T09:23:41.780Z,98794.98
2018-02-13T09:26:09.187Z,98795.60
2018-02-13T09:28:36.597Z,98791.06
2018-02-13T09:31:04.003Z,98789.24
2018-02-13T09:33:31.396Z,98788.77
2018-02-13T09:35:58.800Z,98785.62
2018-02-13T09:38:26.200Z,98779.22
2018-02-13T09:40:53.601Z,98781.48
2018-02-13T09:43:20.999Z,98779.02
2018-02-13T09:45:48.457Z,98770.77
2018-02-13T09:48:15.805Z,98773.87
2018-02-13T09:50:43.211Z,98767.97
2018-02-13T09:53:10.610Z,98762.22
2018-02-13T09:55:38.012Z,98757.13
2018-02-13T09:58:05.413Z,98755.33
2018-02-13T10:00:32.846Z,98751.33
2018-02-13T10:03:00.244Z,98762.53
2018-02-13T10:05:27.639Z,98755.16
2018-02-13T10:07:55.044Z,98750.05
2018-02-13T10:10:22.444Z,98744.94
2018-02-13T10:12:49.852Z,98742.90
2018-02-13T10:15:17.248Z,98733.81
2018-02-13T10:17:44.665Z,98727.57
2018-02-13T10:20:12.064Z,98725.80
2018-02-13T10:22:39.464Z,98722.35
2018-02-13T10:25:07.547Z,98722.80
2018-02-13T10:27:34.953Z,98710.23
2018-02-13T10:30:02.353Z,98707.81
2018-02-13T10:32:29.765Z,98697.98
2018-02-13T10:34:57.160Z,98703.20
2018-02-13T10:37:24.580Z,98701.74
2018-02-13T10:39:51.980Z,98698.00
2018-02-13T10:42:19.396Z,98694.89
2018-02-13T10:44:46.789Z,98694.03
2018-02-13T10:47:14.200Z,98688.63
2018-02-13T10:49:41.604Z,98683.20
2018-02-13T10:52:09.016Z,98682.79
2018-02-13T10:54:36.416Z,98678.75
2018-02-13T10:57:03.830Z,98683.66
2018-02-13T10:59:32.544Z,98676.80
2018-02-13T11:02:05.588Z,98681.42
2018-02-13T11:04:32.991Z,98677.22
2018-02-13T11:07:00.401Z,98670.80
2018-02-13T11:09:27.816Z,98671.34
2018-02-13T11:11:55.216Z,98664.14
2018-02-13T11:14:22.617Z,98659.62
2018-02-13T11:16:50.794Z,98654.53
2018-02-13T11:19:19.113Z,98646.97
2018-02-13T11:21:46.512Z,98639.84
2018-02-13T11:24:13.918Z,98639.83
2018-02-13T11:26:41.316Z,98630.09
2018-02-13T11:29:09.827Z,98630.09
2018-02-13T11:31:37.222Z,98628.48
2018-02-13T11:34:04.634Z,98626.35
2018-02-13T11:36:32.024Z,98618.50
2018-02-13T11:38:59.436Z,98607.84
2018-02-13T11:41:26.831Z,98604.95
2018-02-13T11:43:54.245Z,98601.34
2018-02-13T11:46:21.644Z,98596.14
2018-02-13T11:48:49.054Z,98591.76
2018-02-13T11:51:16.449Z,98581.98
2018-02-13T11:53:43.865Z,98582.38
2018-02-13T11:56:11.252Z,98577.20
2018-02-13T11:58:38.661Z,98573.20
2018-02-13T12:01:06.059Z,98567.65
2018-02-13T12:03:33.466Z,98562.34
2018-02-13T12:06:00.877Z,98554.31
2018-02-13T12:08:28.285Z,98558.14
2018-02-13T12:10:55.681Z,98551.93
2018-02-13T12:13:23.110Z,98543.13
2018-02-13T12:15:50.514Z,98538.02
2018-02-13T12:18:17.904Z,98526.03
2018-02-13T12:20:45.354Z,98530.58
2018-02-13T12:23:13.045Z,98525.92
2018-02-13T12:25:42.270Z,98518.14
2018-02-13T12:28:09.659Z,98509.72
2018-02-13T12:30:37.067Z,98510.19
2018-02-13T12:33:04.476Z,98505.97
2018-02-13T12:35:31.883Z,98499.59
2018-02-13T12:37:59.285Z,98492.23
2018-02-13T12:40:26.696Z,98488.30
2018-02-13T12:42:54.099Z,98483.08
2018-02-13T12:45:21.497Z,98478.47
2018-02-13T12:47:48.897Z,98474.39
2018-02-13T12:50:16.310Z,98474.22
2018-02-13T12:52:43.715Z,98470.16
2018-02-13T12:55:11.114Z,98462.41
2018-02-13T12:57:38.505Z,98466.45
2018-02-13T13:00:05.907Z,98460.53
2018-02-13T13:02:33.319Z,98452.38
2018-02-13T13:05:00.722Z,98445.02
2018-02-13T13:07:28.120Z,98437.50
2018-02-13T13:09:55.538Z,98436.63
2018-02-13T13:12:22.935Z,98429.55
2018-02-13T13:14:50.325Z,98429.22
2018-02-13T13:17:17.729Z,98420.68
2018-02-13T13:19:45.121Z,98417.59
2018-02-13T13:22:12.542Z,98421.70
2018-02-13T13:24:39.937Z,98414.36
2018-02-13T13:27:07.340Z,98416.94
2018-02-13T13:29:34.743Z,98418.73
2018-02-13T13:32:02.145Z,98411.69
2018-02-13T13:34:29.538Z,98402.93
2018-02-13T13:36:56.944Z,98397.83
2018-02-13T13:39:24.334Z,98399.77
2018-02-13T13:41:51.798Z,98394.70
2018-02-13T13:44:19.189Z,98381.03
2018-02-13T13:46:46.597Z,98385.84
2018-02-13T13:49:13.990Z,98380.26
2018-02-13T13:51:41.392Z,98382.89
2018-02-13T13:54:08.792Z,98373.05
2018-02-13T13:56:36.195Z,98370.45
2018-02-13T13:59:03.584Z,98365.28
2018-02-13T14:01:30.989Z,98358.34
2018-02-13T14:03:58.388Z,98352.28
2018-02-13T14:06:25.800Z,98350.17
2018-02-13T14:08:53.188Z,98349.75
2018-02-13T14:11:20.598Z,98344.93
2018-02-13T14:13:48.696Z,98341.52
2018-02-13T14:16:16.100Z,98341.45
2018-02-13T14:18:43.951Z,98334.63
2018-02-13T14:21:11.377Z,98332.45
2018-02-13T14:23:38.769Z,98334.36
2018-02-13T14:26:06.171Z,98334.23
2018-02-13T14:28:33.577Z,98326.09
2018-02-13T14:31:00.969Z,98332.33
2018-02-13T14:33:28.371Z,98328.95
2018-02-13T14:35:56.098Z,98332.91
2018-02-13T14:38:23.494Z,98330.35
2018-02-13T14:40:50.897Z,98336.78
2018-02-13T14:43:18.296Z,98326.20
2018-02-13T14:45:45.701Z,98322.54
2018-02-13T14:48:13.452Z,98326.94
2018-02-13T14:50:40.859Z,98321.93
2018-02-13T14:53:08.260Z,98324.33
2018-02-13T14:55:35.685Z,98318.84
2018-02-13T14:58:03.073Z,98316.77
2018-02-13T15:00:30.481Z,98309.97
2018-02-13T15:02:57.870Z,98315.26
2018-02-13T15:05:25.293Z,98314.13
2018-02-13T15:07:52.669Z,98317.05
2018-02-13T15:10:20.072Z,98313.33
2018-02-13T15:12:47.481Z,98313.29
2018-02-13T15:15:15.196Z,98308.78
2018-02-13T15:17:52.497Z,98307.83
2018-02-13T15:20:19.887Z,98311.83
2018-02-13T15:22:47.288Z,98303.16
2018-02-13T15:25:14.683Z,98306.85
2018-02-13T15:27:42.073Z,98305.45
2018-02-13T15:30:09.482Z,98306.78
2018-02-13T15:32:36.872Z,98310.98
2018-02-13T15:35:04.281Z,98313.03
2018-02-13T15:37:31.676Z,98308.23
2018-02-13T15:39:59.088Z,98314.34
2018-02-13T15:42:26.480Z,98318.31
2018-02-13T15:44:54.101Z,98314.47
2018-02-13T15:47:21.498Z,98323.00
2018-02-13T15:49:48.900Z,98311.68
2018-02-13T15:52:16.305Z,98303.45
2018-02-13T15:54:43.700Z,98313.15
2018-02-13T15:57:11.105Z,98312.22
2018-02-13T15:59:38.509Z,98317.52
2018-02-13T16:02:05.908Z,98314.27
2018-02-13T16:04:33.312Z,98309.06
2018-02-13T16:07:00.713Z,98307.63
2018-02-13T16:09:28.112Z,98310.11
2018-02-13T16:11:55.513Z,98310.77
2018-02-13T16:14:23.760Z,98307.77
2018-02-13T16:16:51.213Z,98307.45
2018-02-13T16:19:18.553Z,98312.20
2018-02-13T16:21:45.964Z,98314.53
2018-02-13T16:24:13.373Z,98318.56
2018-02-13T16:26:40.774Z,98314.27
2018-02-13T16:29:08.172Z,98316.72
2018-02-13T16:31:35.577Z,98314.79
2018-02-13T16:34:03.030Z,98316.27
2018-02-13T16:36:30.387Z,98323.06
2018-02-13T16:38:57.780Z,98323.18
2018-02-13T16:41:25.184Z,98328.48
2018-02-13T16:43:52.643Z,98325.56
2018-02-13T16:46:19.983Z,98324.23
2018-02-13T16:48:47.383Z,98314.39
2018-02-13T16:51:14.788Z,98317.83
2018-02-13T16:53:42.183Z,98318.16
2018-02-13T16:56:09.591Z,98309.41
2018-02-13T16:58:36.992Z,98314.09
2018-02-13T17:01:04.400Z,98318.48
2018-02-13T17:03:31.784Z,98317.52
2018-02-13T17:05:59.187Z,98325.97
2018-02-13T17:08:26.575Z,98320.89
2018-02-13T17:10:53.983Z,98327.41
2018-02-13T17:13:21.380Z,98331.02
2018-02-13T17:15:48.798Z,98325.30
2018-02-13T17:18:16.189Z,98322.83
2018-02-13T17:20:43.604Z,98328.83
2018-02-13T17:23:11.001Z,98334.20
2018-02-13T17:25:38.409Z,98333.05
2018-02-13T17:28:05.807Z,98332.59
2018-02-13T17:30:33.232Z,98326.48
2018-02-13T17:33:00.621Z,98327.13
2018-02-13T17:35:28.019Z,98330.50
2018-02-13T17:37:56.104Z,98330.72
2018-02-13T17:40:23.505Z,98328.91
2018-02-13T17:42:50.903Z,98334.27
2018-02-13T17:45:18.292Z,98334.50
2018-02-13T17:47:45.701Z,98333.39
2018-02-13T17:50:13.101Z,98339.60
2018-02-13T17:52:41.408Z,98339.93
2018-02-13T17:55:09.591Z,98339.22
2018-02-13T17:57:36.991Z,98342.09
2018-02-13T18:00:04.384Z,98347.61
2018-02-13T18:02:31.787Z,98341.15
2018-02-13T18:04:59.189Z,98350.13
2018-02-13T18:07:27.024Z,98352.20
2018-02-13T18:09:54.915Z,98355.82
2018-02-13T18:12:22.318Z,98352.06
2018-02-13T18:14:49.717Z,98356.55
2018-02-13T18:17:17.756Z,98354.11
2018-02-13T18:19:45.144Z,98351.73
2018-02-13T18:22:12.567Z,98351.02
2018-02-13T18:24:39.974Z,98350.57
2018-02-13T18:27:07.372Z,98354.28
2018-02-13T18:29:34.769Z,98345.92
2018-02-13T18:32:02.184Z,98356.98
2018-02-13T18:34:29.580Z,98357.08
2018-02-13T18:36:57.978Z,98357.64
2018-02-13T18:39:25.391Z,98362.75
2018-02-13T18:41:52.777Z,98356.05
2018-02-13T18:44:20.174Z,98361.72
2018-02-13T18:46:47.572Z,98360.77
2018-02-13T18:49:14.971Z,98358.37
2018-02-13T18:51:42.377Z,98355.19
2018-02-13T18:54:09.788Z,98356.66
2018-02-13T18:56:37.180Z,98359.30
2018-02-13T18:59:04.585Z,98356.77
2018-02-13T19:01:31.981Z,98360.08
2018-02-13T19:03:59.384Z,98360.03
2018-02-13T19:06:26.785Z,98366.92
2018-02-13T19:08:54.836Z,98354.61
2018-02-13T19:11:22.225Z,98360.73
2018-02-13T19:13:49.641Z,98355.48
2018-02-13T19:16:17.035Z,98354.19
2018-02-13T19:18:44.445Z,98350.70
2018-02-13T19:21:11.853Z,98352.38
2018-02-13T19:23:39.261Z,98354.87
2018-02-13T19:26:06.660Z,98350.70
2018-02-13T19:28:34.074Z,98355.14
2018-02-13T19:31:01.478Z,98355.55
2018-02-13T19:33:29.379Z,98357.36
2018-02-13T19:35:56.783Z,98355.81
2018-02-13T19:38:24.200Z,98360.02
2018-02-13T19:40:51.601Z,98360.96
2018-02-13T19:43:19.019Z,98353.41
2018-02-13T19:45:46.425Z,98360.91
2018-02-13T19:48:13.828Z,98357.38
2018-02-13T19:50:41.242Z,98364.26
2018-02-13T19:53:08.643Z,98358.75
2018-02-13T19:55:36.055Z,98364.09
2018-02-13T19:58:03.456Z,98360.09
2018-02-13T20:00:30.864Z,98364.84
2018-02-13T20:02:58.263Z,98364.86
2018-02-13T20:05:25.677Z,98363.88
2018-02-13T20:07:53.083Z,98364.41
2018-02-13T20:10:20.498Z,98370.23
2018-02-13T20:12:47.898Z,98365.97
2018-02-13T20:15:15.304Z,98361.22
2018-02-13T20:17:42.705Z,98365.86
2018-02-13T20:20:10.116Z,98368.09
2018-02-13T20:22:37.524Z,98362.51
2018-02-13T20:25:04.935Z,98365.61
2018-02-13T20:27:32.332Z,98364.19
2018-02-13T20:29:59.743Z,98360.44
2018-02-13T20:32:27.150Z,98367.84
2018-02-13T20:34:54.869Z,98366.17
2018-02-13T20:37:22.276Z,98370.67
2018-02-13T20:39:49.681Z,98365.62
2018-02-13T20:42:17.076Z,98363.66
2018-02-13T20:44:44.477Z,98362.81
2018-02-13T20:47:11.885Z,98366.27
2018-02-13T20:49:39.293Z,98366.35
2018-02-13T20:52:06.704Z,98370.25
2018-02-13T20:54:34.121Z,98368.95
2018-02-13T20:57:01.831Z,98369.45
2018-02-13T20:59:29.249Z,98371.50
2018-02-13T21:01:56.648Z,98371.30
2018-02-13T21:04:24.049Z,98371.98
2018-02-13T21:06:51.460Z,98372.30
2018-02-13T21:09:18.871Z,98380.89
2018-02-13T21:11:46.279Z,98380.16
2018-02-13T21:14:13.683Z,98378.87
2018-02-13T21:16:41.101Z,98380.40
2018-02-13T21:19:08.518Z,98376.69
2018-02-13T21:21:36.155Z,98387.85
2018-02-13T21:24:03.564Z,98390.45
2018-02-13T21:26:30.980Z,98391.89
2018-02-13T21:28:58.412Z,98386.07
2018-02-13T21:31:27.029Z,98388.30
2018-02-13T21:33:54.440Z,98387.19
2018-02-13T21:36:21.854Z,98383.95
2018-02-13T21:38:49.265Z,98384.33
2018-02-13T21:41:16.693Z,98378.95
2018-02-13T21:43:44.096Z,98375.30
2018-02-13T21:46:11.509Z,98379.93
2018-02-13T21:48:38.908Z,98380.93
2018-02-13T21:51:06.327Z,98377.98
2018-02-13T21:53:34.269Z,98381.16
2018-02-13T21:56:01.687Z,98380.20
2018-02-13T21:58:29.100Z,98382.03
2018-02-13T22:02:38.978Z,98378.25
2018-02-13T22:05:06.401Z,98374.99
2018-02-13T22:07:34.115Z,98379.20
2018-02-13T22:10:01.538Z,98384.06
2018-02-13T22:12:28.988Z,98386.30
2018-02-13T22:14:56.472Z,98394.88
2018-02-13T22:17:23.905Z,98398.89
2018-02-13T22:19:51.325Z,98391.24
2018-02-13T22:22:19.190Z,98401.54
2018-02-13T22:24:46.613Z,98399.30
2018-02-13T22:27:14.060Z,98402.66
2018-02-13T22:29:41.465Z,98404.39
2018-02-13T22:32:08.914Z,98406.46
2018-02-13T22:34:36.322Z,98409.13
2018-02-13T22:37:03.750Z,98412.70
2018-02-13T22:39:31.187Z,98419.89
2018-02-13T22:41:58.604Z,98420.59
2018-02-13T22:44:26.076Z,98427.16
2018-02-13T22:46:53.533Z,98421.88
2018-02-13T22:49:20.961Z,98430.02
2018-02-13T22:51:48.394Z,98421.44
2018-02-13T22:54:15.846Z,98420.72
2018-02-13T22:56:43.257Z,98425.58
2018-02-13T22:59:10.681Z,98418.71
2018-02-13T23:01:38.147Z,98414.72
2018-02-13T23:04:06.029Z,98419.15
2018-02-13T23:06:33.441Z,98421.29
2018-02-13T23:09:00.868Z,98417.94
2018-02-13T23:11:28.291Z,98422.30
2018-02-13T23:13:55.715Z,98431.63
2018-02-13T23:16:23.148Z,98427.02
2018-02-13T23:18:50.575Z,98423.50
2018-02-13T23:21:17.985Z,98433.89
2018-02-13T23:23:45.417Z,98430.67
2018-02-13T23:26:12.868Z,98420.58
2018-02-13T23:28:40.280Z,98424.52
2018-02-13T23:31:07.737Z,98428.20
2018-02-13T23:33:35.183Z,98425.73
2018-02-13T23:36:02.600Z,98430.98
2018-02-13T23:38:30.029Z,98429.90
2018-02-13T23:40:57.444Z,98437.67
2018-02-13T23:43:24.866Z,98435.02
2018-02-13T23:45:52.291Z,98434.53
2018-02-13T23:48:19.736Z,98436.52
2018-02-13T23:50:47.166Z,98435.27
2018-02-13T23:53:14.577Z,98429.14
2018-02-13T23:55:42.005Z,98431.71
2018-02-13T23:58:09.466Z,98435.44
